createdAt,value
2019-03-04T00:00:55.808Z,996.89
2019-03-04T00:01:55.778Z,996.88
2019-03-04T00:02:56.691Z,996.87
2019-03-04T00:03:55.658Z,996.94
2019-03-04T00:04:55.589Z,996.94
2019-03-04T00:05:55.561Z,996.88
2019-03-04T00:06:55.528Z,996.90
2019-03-04T00:07:55.498Z,996.82
2019-03-04T00:08:55.489Z,996.77
2019-03-04T00:09:55.441Z,996.71
2019-03-04T00:10:55.412Z,996.72
2019-03-04T00:11:55.382Z,996.75
2019-03-04T00:12:55.351Z,996.71
2019-03-04T00:13:55.345Z,996.62
2019-03-04T00:14:55.288Z,996.62
2019-03-04T00:15:55.336Z,996.62
2019-03-04T00:16:55.258Z,996.57
2019-03-04T00:17:55.201Z,996.49
2019-03-04T00:18:55.636Z,996.42
2019-03-04T00:19:56.093Z,996.50
2019-03-04T00:20:56.099Z,996.51
2019-03-04T00:21:55.597Z,996.55
2019-03-04T00:22:55.045Z,996.54
2019-03-04T00:23:55.593Z,996.63
2019-03-04T00:24:55.130Z,996.67
2019-03-04T00:25:54.970Z,996.70
2019-03-04T00:26:54.931Z,996.66
2019-03-04T00:27:54.899Z,996.58
2019-03-04T00:28:54.976Z,996.48
2019-03-04T00:29:54.874Z,996.51
2019-03-04T00:30:54.804Z,996.61
2019-03-04T00:31:54.811Z,996.64
2019-03-04T00:32:54.757Z,996.64
2019-03-04T00:33:54.727Z,996.65
2019-03-04T00:34:54.717Z,996.53
2019-03-04T00:35:54.656Z,996.53
2019-03-04T00:36:54.632Z,996.53
2019-03-04T00:37:54.597Z,996.53
2019-03-04T00:38:54.659Z,996.52
2019-03-04T00:39:54.631Z,996.47
2019-03-04T00:40:55.103Z,996.48
2019-03-04T00:41:55.097Z,996.41
2019-03-04T00:42:54.448Z,996.36
2019-03-04T00:43:54.412Z,996.39
2019-03-04T00:44:54.644Z,996.37
2019-03-04T00:45:54.355Z,996.34
2019-03-04T00:46:54.325Z,996.38
2019-03-04T00:47:54.295Z,996.36
2019-03-04T00:48:55.120Z,996.37
2019-03-04T00:49:54.270Z,996.31
2019-03-04T00:50:55.096Z,996.36
2019-03-04T00:51:54.180Z,996.33
2019-03-04T00:52:55.112Z,996.22
2019-03-04T00:53:54.120Z,996.17
2019-03-04T00:54:54.116Z,996.12
2019-03-04T00:55:54.054Z,996.03
2019-03-04T00:56:54.024Z,996.02
2019-03-04T00:57:54.599Z,996.02
2019-03-04T00:58:53.966Z,995.95
2019-03-04T00:59:54.140Z,995.95
2019-03-04T01:00:53.903Z,995.97
2019-03-04T01:01:54.604Z,995.96
2019-03-04T01:02:53.849Z,995.90
2019-03-04T01:03:54.630Z,995.90
2019-03-04T01:04:54.600Z,995.90
2019-03-04T01:05:53.773Z,995.93
2019-03-04T01:06:53.726Z,995.87
2019-03-04T01:07:53.697Z,995.91
2019-03-04T01:08:53.666Z,995.91
2019-03-04T01:09:53.634Z,995.86
2019-03-04T01:10:53.658Z,995.80
2019-03-04T01:11:53.577Z,995.73
2019-03-04T01:12:53.684Z,995.70
2019-03-04T01:13:53.517Z,995.65
2019-03-04T01:14:53.507Z,995.67
2019-03-04T01:15:53.635Z,995.58
2019-03-04T01:16:53.427Z,995.56
2019-03-04T01:17:54.102Z,995.58
2019-03-04T01:18:53.366Z,995.45
2019-03-04T01:19:53.337Z,995.48
2019-03-04T01:20:53.349Z,995.45
2019-03-04T01:21:53.282Z,995.36
2019-03-04T01:22:53.254Z,995.33
2019-03-04T01:23:53.222Z,995.27
2019-03-04T01:24:53.187Z,995.22
2019-03-04T01:25:53.183Z,995.13
2019-03-04T01:26:53.129Z,995.07
2019-03-04T01:27:53.097Z,995.08
2019-03-04T01:28:53.070Z,995.03
2019-03-04T01:29:53.043Z,994.98
2019-03-04T01:30:53.139Z,994.91
2019-03-04T01:31:52.974Z,994.93
2019-03-04T01:32:53.665Z,994.95
2019-03-04T01:33:52.919Z,994.93
2019-03-04T01:34:52.886Z,994.98
2019-03-04T01:35:52.879Z,994.97
2019-03-04T01:36:52.834Z,995.01
2019-03-04T01:37:53.609Z,995.07
2019-03-04T01:38:52.776Z,995.05
2019-03-04T01:39:52.740Z,995.02
2019-03-04T01:40:52.739Z,995.00
2019-03-04T01:41:52.677Z,995.03
2019-03-04T01:42:52.649Z,995.04
2019-03-04T01:43:52.614Z,995.04
2019-03-04T01:44:53.121Z,995.05
2019-03-04T01:45:52.581Z,995.07
2019-03-04T01:46:52.524Z,995.14
2019-03-04T01:47:53.107Z,995.17
2019-03-04T01:48:52.461Z,995.11
2019-03-04T01:49:53.126Z,995.19
2019-03-04T01:50:52.425Z,995.22
2019-03-04T01:51:52.374Z,995.18
2019-03-04T01:52:52.350Z,995.18
2019-03-04T01:53:52.308Z,995.11
2019-03-04T01:54:53.111Z,995.04
2019-03-04T01:55:52.654Z,995.02
2019-03-04T01:56:52.220Z,995.03
2019-03-04T01:57:53.109Z,995.03
2019-03-04T01:58:52.155Z,995.06
2019-03-04T01:59:53.111Z,994.99
2019-03-04T02:00:52.144Z,994.91
2019-03-04T02:01:52.070Z,994.89
2019-03-04T02:02:52.611Z,994.93
2019-03-04T02:03:52.002Z,994.92
2019-03-04T02:04:51.972Z,994.92
2019-03-04T02:05:52.700Z,994.97
2019-03-04T02:06:51.907Z,995.03
2019-03-04T02:07:52.614Z,994.95
2019-03-04T02:08:51.847Z,994.94
2019-03-04T02:09:51.816Z,995.05
2019-03-04T02:10:52.149Z,995.07
2019-03-04T02:11:51.754Z,995.11
2019-03-04T02:12:51.722Z,995.08
2019-03-04T02:13:51.699Z,995.16
2019-03-04T02:14:51.664Z,995.17
2019-03-04T02:15:51.654Z,995.22
2019-03-04T02:16:51.597Z,995.34
2019-03-04T02:17:52.111Z,995.42
2019-03-04T02:18:51.540Z,995.47
2019-03-04T02:19:51.518Z,995.48
2019-03-04T02:20:51.653Z,995.43
2019-03-04T02:21:51.448Z,995.41
2019-03-04T02:22:52.117Z,995.44
2019-03-04T02:23:51.383Z,995.40
2019-03-04T02:24:51.348Z,995.34
2019-03-04T02:25:51.318Z,995.34
2019-03-04T02:26:51.314Z,995.28
2019-03-04T02:27:51.257Z,995.26
2019-03-04T02:28:51.224Z,995.37
2019-03-04T02:29:52.116Z,995.35
2019-03-04T02:30:51.162Z,995.32
2019-03-04T02:31:51.156Z,995.26
2019-03-04T02:32:51.617Z,995.27
2019-03-04T02:33:51.072Z,995.24
2019-03-04T02:34:51.622Z,995.22
2019-03-04T02:35:51.810Z,995.16
2019-03-04T02:36:51.000Z,995.16
2019-03-04T02:37:51.635Z,995.09
2019-03-04T02:38:50.916Z,994.97
2019-03-04T02:39:51.615Z,994.97
2019-03-04T02:40:50.852Z,994.95
2019-03-04T02:41:51.151Z,994.98
2019-03-04T02:42:51.633Z,994.91
2019-03-04T02:43:50.755Z,994.92
2019-03-04T02:44:50.729Z,994.97
2019-03-04T02:45:51.624Z,994.93
2019-03-04T02:46:50.720Z,994.90
2019-03-04T02:47:50.632Z,994.86
2019-03-04T02:48:50.600Z,994.76
2019-03-04T02:49:50.582Z,994.73
2019-03-04T02:50:50.542Z,994.74
2019-03-04T02:51:50.541Z,994.66
2019-03-04T02:52:51.130Z,994.68
2019-03-04T02:53:50.444Z,994.68
2019-03-04T02:54:50.436Z,994.62
2019-03-04T02:55:50.380Z,994.57
2019-03-04T02:56:50.393Z,994.48
2019-03-04T02:57:50.321Z,994.46
2019-03-04T02:58:50.288Z,994.43
2019-03-04T02:59:50.255Z,994.37
2019-03-04T03:00:50.242Z,994.35
2019-03-04T03:01:50.220Z,994.33
2019-03-04T03:02:50.169Z,994.29
2019-03-04T03:03:50.132Z,994.25
2019-03-04T03:04:50.623Z,994.21
2019-03-04T03:05:50.621Z,994.18
2019-03-04T03:06:50.062Z,994.13
2019-03-04T03:07:50.034Z,994.12
2019-03-04T03:08:49.974Z,994.13
2019-03-04T03:09:50.623Z,994.12
2019-03-04T03:10:49.915Z,994.06
2019-03-04T03:11:49.902Z,994.13
2019-03-04T03:12:49.852Z,994.14
2019-03-04T03:13:49.819Z,994.01
2019-03-04T03:14:50.623Z,993.95
2019-03-04T03:15:49.759Z,993.92
2019-03-04T03:16:49.757Z,993.91
2019-03-04T03:17:49.693Z,993.89
2019-03-04T03:18:49.671Z,993.86
2019-03-04T03:19:49.636Z,993.83
2019-03-04T03:20:50.123Z,993.81
2019-03-04T03:21:49.609Z,993.81
2019-03-04T03:22:50.125Z,993.71
2019-03-04T03:23:49.507Z,993.66
2019-03-04T03:24:49.475Z,993.67
2019-03-04T03:25:50.126Z,993.56
2019-03-04T03:26:49.429Z,993.61
2019-03-04T03:27:49.406Z,993.57
2019-03-04T03:28:49.353Z,993.58
2019-03-04T03:29:51.878Z,993.58
2019-03-04T03:30:49.286Z,993.48
2019-03-04T03:31:49.264Z,993.47
2019-03-04T03:32:49.707Z,993.54
2019-03-04T03:33:49.211Z,993.51
2019-03-04T03:34:50.193Z,993.37
2019-03-04T03:35:49.131Z,993.35
2019-03-04T03:36:49.098Z,993.31
2019-03-04T03:37:49.099Z,993.25
2019-03-04T03:38:49.037Z,993.34
2019-03-04T03:39:50.532Z,993.33
2019-03-04T03:40:48.971Z,993.36
2019-03-04T03:41:48.948Z,993.30
2019-03-04T03:42:50.068Z,993.42
2019-03-04T03:43:48.884Z,993.55
2019-03-04T03:44:48.850Z,993.56
2019-03-04T03:45:48.818Z,993.61
2019-03-04T03:46:48.792Z,993.59
2019-03-04T03:47:48.798Z,993.62
2019-03-04T03:48:49.631Z,993.62
2019-03-04T03:49:48.721Z,993.57
2019-03-04T03:50:48.683Z,993.60
2019-03-04T03:51:48.647Z,993.61
2019-03-04T03:52:48.646Z,993.58
2019-03-04T03:53:48.597Z,993.55
2019-03-04T03:54:48.550Z,993.54
2019-03-04T03:55:48.558Z,993.52
2019-03-04T03:56:48.490Z,993.48
2019-03-04T03:57:48.478Z,993.44
2019-03-04T03:58:48.427Z,993.49
2019-03-04T03:59:48.377Z,993.44
2019-03-04T04:00:49.130Z,993.44
2019-03-04T04:01:48.329Z,993.31
2019-03-04T04:02:48.340Z,993.27
2019-03-04T04:03:48.260Z,993.25
2019-03-04T04:04:48.236Z,993.15
2019-03-04T04:05:48.211Z,993.11
2019-03-04T04:06:48.165Z,993.14
2019-03-04T04:07:48.159Z,993.10
2019-03-04T04:08:48.136Z,993.07
2019-03-04T04:09:48.077Z,993.04
2019-03-04T04:10:48.042Z,993.03
2019-03-04T04:11:48.016Z,992.98
2019-03-04T04:12:48.007Z,992.92
2019-03-04T04:13:47.945Z,992.92
2019-03-04T04:14:47.915Z,992.84
2019-03-04T04:15:47.882Z,992.78
2019-03-04T04:16:47.854Z,992.79
2019-03-04T04:17:47.847Z,992.74
2019-03-04T04:18:47.796Z,992.72
2019-03-04T04:19:47.763Z,992.74
2019-03-04T04:20:47.731Z,992.64
2019-03-04T04:21:47.698Z,992.69
2019-03-04T04:22:47.699Z,992.69
2019-03-04T04:23:47.639Z,992.61
2019-03-04T04:24:47.616Z,992.71
2019-03-04T04:25:47.574Z,992.64
2019-03-04T04:26:47.545Z,992.64
2019-03-04T04:27:47.672Z,992.56
2019-03-04T04:28:47.499Z,992.57
2019-03-04T04:29:47.452Z,992.53
2019-03-04T04:30:47.436Z,992.54
2019-03-04T04:31:47.393Z,992.49
2019-03-04T04:32:47.702Z,992.51
2019-03-04T04:33:47.332Z,992.56
2019-03-04T04:34:47.298Z,992.56
2019-03-04T04:35:47.268Z,992.59
2019-03-04T04:36:47.239Z,992.57
2019-03-04T04:37:47.234Z,992.54
2019-03-04T04:38:47.206Z,992.52
2019-03-04T04:39:47.159Z,992.48
2019-03-04T04:40:47.114Z,992.42
2019-03-04T04:41:47.095Z,992.42
2019-03-04T04:42:47.080Z,992.41
2019-03-04T04:43:47.033Z,992.47
2019-03-04T04:44:46.994Z,992.45
2019-03-04T04:45:46.962Z,992.52
2019-03-04T04:46:46.933Z,992.48
2019-03-04T04:47:46.904Z,992.40
2019-03-04T04:48:46.898Z,992.44
2019-03-04T04:49:47.019Z,992.41
2019-03-04T04:50:46.812Z,992.42
2019-03-04T04:51:46.780Z,992.44
2019-03-04T04:52:46.751Z,992.40
2019-03-04T04:53:47.174Z,992.45
2019-03-04T04:54:46.690Z,992.43
2019-03-04T04:55:46.657Z,992.44
2019-03-04T04:56:46.640Z,992.48
2019-03-04T04:57:46.602Z,992.44
2019-03-04T04:58:46.595Z,992.43
2019-03-04T04:59:46.551Z,992.41
2019-03-04T05:00:46.513Z,992.48
2019-03-04T05:01:46.483Z,992.48
2019-03-04T05:02:46.446Z,992.46
2019-03-04T05:03:46.447Z,992.49
2019-03-04T05:04:46.391Z,992.44
2019-03-04T05:05:46.356Z,992.46
2019-03-04T05:06:46.329Z,992.39
2019-03-04T05:07:46.296Z,992.41
2019-03-04T05:08:46.290Z,992.37
2019-03-04T05:09:47.142Z,992.35
2019-03-04T05:10:46.207Z,992.34
2019-03-04T05:11:46.185Z,992.23
2019-03-04T05:12:47.145Z,992.18
2019-03-04T05:13:46.139Z,992.17
2019-03-04T05:14:46.092Z,992.04
2019-03-04T05:15:46.059Z,991.92
2019-03-04T05:16:46.034Z,991.81
2019-03-04T05:17:46.000Z,991.70
2019-03-04T05:18:45.989Z,991.74
2019-03-04T05:19:45.938Z,991.79
2019-03-04T05:20:46.642Z,991.86
2019-03-04T05:21:45.877Z,991.87
2019-03-04T05:22:45.847Z,991.96
2019-03-04T05:23:45.835Z,991.97
2019-03-04T05:24:46.642Z,992.01
2019-03-04T05:25:45.758Z,991.95
2019-03-04T05:26:45.727Z,991.91
2019-03-04T05:27:45.699Z,991.82
2019-03-04T05:28:45.701Z,991.83
2019-03-04T05:29:46.065Z,991.87
2019-03-04T05:30:45.612Z,991.84
2019-03-04T05:31:45.636Z,991.92
2019-03-04T05:32:45.543Z,991.93
2019-03-04T05:33:45.539Z,991.93
2019-03-04T05:34:46.145Z,991.94
2019-03-04T05:35:45.454Z,991.91
2019-03-04T05:36:45.428Z,991.86
2019-03-04T05:37:45.396Z,991.87
2019-03-04T05:38:45.390Z,991.83
2019-03-04T05:39:45.333Z,991.82
2019-03-04T05:40:45.301Z,991.82
2019-03-04T05:41:45.274Z,991.80
2019-03-04T05:42:45.243Z,991.78
2019-03-04T05:43:45.243Z,991.75
2019-03-04T05:44:45.185Z,991.76
2019-03-04T05:45:45.149Z,991.76
2019-03-04T05:46:45.126Z,991.72
2019-03-04T05:47:45.100Z,991.72
2019-03-04T05:48:45.113Z,991.65
2019-03-04T05:49:45.648Z,991.57
2019-03-04T05:50:45.014Z,991.60
2019-03-04T05:51:44.976Z,991.54
2019-03-04T05:52:45.663Z,991.58
2019-03-04T05:53:44.940Z,991.64
2019-03-04T05:54:44.880Z,991.60
2019-03-04T05:55:44.857Z,991.60
2019-03-04T05:56:44.822Z,991.57
2019-03-04T05:57:44.790Z,991.52
2019-03-04T05:58:44.785Z,991.52
2019-03-04T05:59:44.736Z,991.44
2019-03-04T06:00:44.705Z,991.43
2019-03-04T06:01:44.669Z,991.42
2019-03-04T06:02:44.643Z,991.44
2019-03-04T06:03:44.649Z,991.38
2019-03-04T06:04:44.578Z,991.33
2019-03-04T06:05:44.547Z,991.30
2019-03-04T06:06:44.521Z,991.26
2019-03-04T06:07:44.488Z,991.17
2019-03-04T06:08:44.461Z,991.14
2019-03-04T06:09:44.452Z,991.03
2019-03-04T06:10:44.397Z,990.98
2019-03-04T06:11:44.366Z,990.99
2019-03-04T06:12:44.338Z,990.95
2019-03-04T06:13:44.332Z,990.97
2019-03-04T06:14:44.683Z,990.89
2019-03-04T06:15:44.244Z,991.00
2019-03-04T06:16:47.456Z,991.10
2019-03-04T06:17:44.187Z,991.14
2019-03-04T06:18:44.157Z,991.21
2019-03-04T06:19:44.175Z,991.22
2019-03-04T06:20:44.099Z,991.26
2019-03-04T06:21:44.067Z,991.16
2019-03-04T06:22:44.034Z,991.11
2019-03-04T06:23:44.010Z,991.10
2019-03-04T06:24:43.994Z,991.06
2019-03-04T06:25:43.945Z,991.06
2019-03-04T06:26:43.931Z,991.11
2019-03-04T06:27:43.889Z,991.09
2019-03-04T06:28:43.864Z,991.08
2019-03-04T06:29:43.870Z,991.11
2019-03-04T06:30:43.795Z,991.06
2019-03-04T06:31:43.764Z,991.00
2019-03-04T06:32:43.733Z,990.97
2019-03-04T06:33:43.703Z,990.98
2019-03-04T06:34:43.699Z,990.95
2019-03-04T06:35:43.642Z,990.95
2019-03-04T06:36:43.625Z,990.93
2019-03-04T06:37:43.583Z,990.93
2019-03-04T06:38:43.553Z,990.94
2019-03-04T06:39:43.544Z,990.94
2019-03-04T06:40:43.493Z,990.83
2019-03-04T06:41:44.157Z,990.82
2019-03-04T06:42:43.438Z,990.76
2019-03-04T06:43:44.249Z,990.74
2019-03-04T06:44:43.397Z,990.73
2019-03-04T06:45:43.342Z,990.70
2019-03-04T06:46:43.310Z,990.69
2019-03-04T06:47:43.277Z,990.64
2019-03-04T06:48:43.252Z,990.56
2019-03-04T06:49:43.245Z,990.57
2019-03-04T06:50:43.192Z,990.52
2019-03-04T06:51:43.161Z,990.52
2019-03-04T06:52:43.132Z,990.51
2019-03-04T06:53:43.102Z,990.56
2019-03-04T06:54:43.109Z,990.58
2019-03-04T06:55:43.038Z,990.52
2019-03-04T06:56:43.010Z,990.44
2019-03-04T06:57:42.979Z,990.47
2019-03-04T06:58:42.949Z,990.37
2019-03-04T06:59:43.658Z,990.33
2019-03-04T07:00:42.912Z,990.32
2019-03-04T07:01:42.860Z,990.27
2019-03-04T07:02:42.830Z,990.28
2019-03-04T07:03:42.803Z,990.22
2019-03-04T07:04:42.771Z,990.28
2019-03-04T07:05:42.765Z,990.25
2019-03-04T07:06:42.708Z,990.23
2019-03-04T07:07:42.681Z,990.24
2019-03-04T07:08:42.652Z,990.18
2019-03-04T07:09:42.624Z,990.21
2019-03-04T07:10:42.615Z,990.25
2019-03-04T07:11:42.570Z,990.19
2019-03-04T07:12:42.534Z,990.20
2019-03-04T07:13:42.508Z,990.16
2019-03-04T07:14:42.479Z,990.14
2019-03-04T07:15:42.471Z,990.07
2019-03-04T07:16:42.414Z,990.00
2019-03-04T07:17:42.385Z,989.95
2019-03-04T07:18:42.355Z,989.92
2019-03-04T07:19:42.323Z,989.87
2019-03-04T07:20:42.300Z,989.83
2019-03-04T07:21:42.290Z,989.76
2019-03-04T07:22:42.244Z,989.73
2019-03-04T07:23:42.211Z,989.60
2019-03-04T07:24:42.178Z,989.56
2019-03-04T07:25:42.150Z,989.54
2019-03-04T07:26:42.144Z,989.52
2019-03-04T07:27:44.305Z,989.45
2019-03-04T07:28:42.084Z,989.46
2019-03-04T07:29:42.032Z,989.43
2019-03-04T07:30:42.003Z,989.43
2019-03-04T07:31:41.998Z,989.47
2019-03-04T07:32:41.958Z,989.37
2019-03-04T07:33:41.915Z,989.35
2019-03-04T07:34:42.669Z,989.32
2019-03-04T07:35:42.670Z,989.27
2019-03-04T07:36:41.851Z,989.27
2019-03-04T07:37:41.803Z,989.21
2019-03-04T07:38:41.784Z,989.26
2019-03-04T07:39:41.750Z,989.24
2019-03-04T07:40:41.710Z,989.15
2019-03-04T07:41:41.711Z,989.08
2019-03-04T07:42:42.166Z,989.14
2019-03-04T07:43:41.674Z,989.04
2019-03-04T07:44:41.590Z,988.99
2019-03-04T07:45:41.566Z,988.97
2019-03-04T07:46:41.720Z,989.00
2019-03-04T07:47:41.504Z,989.01
2019-03-04T07:48:41.481Z,989.06
2019-03-04T07:49:42.177Z,989.16
2019-03-04T07:50:42.167Z,989.11
2019-03-04T07:51:41.392Z,989.03
2019-03-04T07:52:41.382Z,988.87
2019-03-04T07:53:46.426Z,988.89
2019-03-04T07:54:42.189Z,988.91
2019-03-04T07:55:41.276Z,988.97
2019-03-04T07:56:41.246Z,988.87
2019-03-04T07:57:41.233Z,988.86
2019-03-04T07:58:41.186Z,988.88
2019-03-04T07:59:41.156Z,988.83
2019-03-04T08:00:41.178Z,988.84
2019-03-04T08:01:41.097Z,988.77
2019-03-04T08:02:41.097Z,988.74
2019-03-04T08:03:41.135Z,988.64
2019-03-04T08:04:41.017Z,988.65
2019-03-04T08:05:40.982Z,988.53
2019-03-04T08:06:40.956Z,988.44
2019-03-04T08:07:40.947Z,988.49
2019-03-04T08:08:40.913Z,988.48
2019-03-04T08:09:41.672Z,988.28
2019-03-04T08:10:40.834Z,988.20
2019-03-04T08:11:41.671Z,988.19
2019-03-04T08:12:40.800Z,988.15
2019-03-04T08:13:40.752Z,988.21
2019-03-04T08:14:41.670Z,988.07
2019-03-04T08:15:41.674Z,987.90
2019-03-04T08:16:41.175Z,987.86
2019-03-04T08:17:40.663Z,987.82
2019-03-04T08:18:40.609Z,987.79
2019-03-04T08:19:40.613Z,988.03
2019-03-04T08:20:40.581Z,988.25
2019-03-04T08:21:40.541Z,988.37
2019-03-04T08:22:40.544Z,988.43
2019-03-04T08:23:41.176Z,988.28
2019-03-04T08:24:41.175Z,988.12
2019-03-04T08:26:41.136Z,987.86
2019-03-04T08:27:43.083Z,987.83
2019-03-04T08:28:40.421Z,987.76
2019-03-04T08:29:41.082Z,987.72
2019-03-04T08:30:40.277Z,987.74
2019-03-04T08:31:40.290Z,987.73
2019-03-04T08:32:40.207Z,987.72
2019-03-04T08:33:40.202Z,987.61
2019-03-04T08:34:40.158Z,987.52
2019-03-04T08:35:40.125Z,987.35
2019-03-04T08:36:40.095Z,987.24
2019-03-04T08:37:40.064Z,987.07
2019-03-04T08:38:40.060Z,987.08
2019-03-04T08:39:40.011Z,987.09
2019-03-04T08:40:39.981Z,987.08
2019-03-04T08:41:39.955Z,987.21
2019-03-04T08:42:39.930Z,987.50
2019-03-04T08:43:39.948Z,987.54
2019-03-04T08:44:39.871Z,987.56
2019-03-04T08:45:39.849Z,987.70
2019-03-04T08:46:39.819Z,987.69
2019-03-04T08:47:39.789Z,987.68
2019-03-04T08:48:39.811Z,987.58
2019-03-04T08:49:39.737Z,987.53
2019-03-04T08:50:39.730Z,987.52
2019-03-04T08:51:39.683Z,987.41
2019-03-04T08:52:39.653Z,987.35
2019-03-04T08:53:39.647Z,987.27
2019-03-04T08:54:39.604Z,987.18
2019-03-04T08:55:39.579Z,987.27
2019-03-04T08:56:39.543Z,987.21
2019-03-04T08:57:39.515Z,987.04
2019-03-04T08:58:39.520Z,987.18
2019-03-04T08:59:39.465Z,987.23
2019-03-04T09:00:39.433Z,987.22
2019-03-04T09:01:39.402Z,987.24
2019-03-04T09:02:39.381Z,987.22
2019-03-04T09:03:39.370Z,987.23
2019-03-04T09:04:39.323Z,987.15
2019-03-04T09:05:39.299Z,987.28
2019-03-04T09:06:39.263Z,987.24
2019-03-04T09:07:39.237Z,987.19
2019-03-04T09:08:39.218Z,987.07
2019-03-04T09:09:39.208Z,987.00
2019-03-04T09:10:39.155Z,986.97
2019-03-04T09:11:39.130Z,986.91
2019-03-04T09:12:39.098Z,986.78
2019-03-04T09:13:39.081Z,986.74
2019-03-04T09:14:39.073Z,986.84
2019-03-04T09:15:39.024Z,986.94
2019-03-04T09:16:38.993Z,987.07
2019-03-04T09:17:38.980Z,987.04
2019-03-04T09:18:38.935Z,987.05
2019-03-04T09:19:38.934Z,986.94
2019-03-04T09:20:39.684Z,986.87
2019-03-04T09:21:38.852Z,986.81
2019-03-04T09:22:38.832Z,986.79
2019-03-04T09:23:38.801Z,986.70
2019-03-04T09:24:38.795Z,986.75
2019-03-04T09:25:38.751Z,986.73
2019-03-04T09:26:38.716Z,986.68
2019-03-04T09:27:38.695Z,986.63
2019-03-04T09:28:38.661Z,986.57
2019-03-04T09:29:38.658Z,986.65
2019-03-04T09:30:41.596Z,986.78
2019-03-04T09:31:38.588Z,986.76
2019-03-04T09:32:38.552Z,986.73
2019-03-04T09:33:38.527Z,986.77
2019-03-04T09:34:38.527Z,986.79
2019-03-04T09:35:38.474Z,986.81
2019-03-04T09:36:38.449Z,986.78
2019-03-04T09:37:38.421Z,986.76
2019-03-04T09:38:38.390Z,986.69
2019-03-04T09:39:38.382Z,986.66
2019-03-04T09:40:39.191Z,986.68
2019-03-04T09:41:39.199Z,986.65
2019-03-04T09:42:38.294Z,986.70
2019-03-04T09:43:38.251Z,986.61
2019-03-04T09:44:38.251Z,986.65
2019-03-04T09:45:39.373Z,986.70
2019-03-04T09:46:38.183Z,986.69
2019-03-04T09:47:38.137Z,986.69
2019-03-04T09:48:38.112Z,986.70
2019-03-04T09:49:38.110Z,986.63
2019-03-04T09:50:38.057Z,986.51
2019-03-04T09:51:38.692Z,986.58
2019-03-04T09:52:38.009Z,986.55
2019-03-04T09:53:39.691Z,986.56
2019-03-04T09:54:37.974Z,986.41
2019-03-04T09:55:37.925Z,986.42
2019-03-04T09:56:37.896Z,986.43
2019-03-04T09:57:37.875Z,986.36
2019-03-04T09:58:37.847Z,986.34
2019-03-04T09:59:37.840Z,986.27
2019-03-04T10:00:37.786Z,986.27
2019-03-04T10:01:37.766Z,986.27
2019-03-04T10:02:37.738Z,986.14
2019-03-04T10:03:37.713Z,986.13
2019-03-04T10:04:37.710Z,986.04
2019-03-04T10:05:37.662Z,986.05
2019-03-04T10:06:37.634Z,985.97
2019-03-04T10:07:37.604Z,985.94
2019-03-04T10:08:37.587Z,985.87
2019-03-04T10:09:37.572Z,985.84
2019-03-04T10:10:37.548Z,985.73
2019-03-04T10:11:37.498Z,985.74
2019-03-04T10:12:37.490Z,985.51
2019-03-04T10:13:37.449Z,985.71
2019-03-04T10:14:37.425Z,985.66
2019-03-04T10:15:37.423Z,985.67
2019-03-04T10:16:37.378Z,985.71
2019-03-04T10:17:37.344Z,985.72
2019-03-04T10:18:37.323Z,985.77
2019-03-04T10:19:37.296Z,985.77
2019-03-04T10:20:37.343Z,985.50
2019-03-04T10:21:37.249Z,985.62
2019-03-04T10:22:37.220Z,985.66
2019-03-04T10:23:37.196Z,985.71
2019-03-04T10:24:37.169Z,985.72
2019-03-04T10:25:37.168Z,985.64
2019-03-04T10:26:37.124Z,985.74
2019-03-04T10:27:37.092Z,985.63
2019-03-04T10:28:37.058Z,985.78
2019-03-04T10:29:37.036Z,985.70
2019-03-04T10:30:37.036Z,985.77
2019-03-04T10:31:36.988Z,985.71
2019-03-04T10:32:36.964Z,985.72
2019-03-04T10:33:36.936Z,985.76
2019-03-04T10:34:36.908Z,985.78
2019-03-04T10:35:36.912Z,985.66
2019-03-04T10:36:36.862Z,985.81
2019-03-04T10:37:37.708Z,985.81
2019-03-04T10:38:36.809Z,985.92
2019-03-04T10:39:36.783Z,985.84
2019-03-04T10:40:36.785Z,985.84
2019-03-04T10:41:36.733Z,985.84
2019-03-04T10:42:36.711Z,985.90
2019-03-04T10:43:36.686Z,986.37
2019-03-04T10:44:37.984Z,986.07
2019-03-04T10:45:36.630Z,985.81
2019-03-04T10:46:36.631Z,985.67
2019-03-04T10:47:43.677Z,986.10
2019-03-04T10:48:36.551Z,985.82
2019-03-04T10:49:36.531Z,985.75
2019-03-04T10:50:36.502Z,985.82
2019-03-04T10:51:36.505Z,985.69
2019-03-04T10:52:36.451Z,985.71
2019-03-04T10:53:36.444Z,985.87
2019-03-04T10:54:36.403Z,985.89
2019-03-04T10:55:42.102Z,985.85
2019-03-04T10:56:36.373Z,985.87
2019-03-04T10:57:36.326Z,985.78
2019-03-04T10:58:36.297Z,985.91
2019-03-04T10:59:36.270Z,985.83
2019-03-04T11:00:36.248Z,986.09
2019-03-04T11:01:36.249Z,985.93
2019-03-04T11:02:36.200Z,985.88
2019-03-04T11:03:36.177Z,985.96
2019-03-04T11:04:36.145Z,986.09
2019-03-04T11:05:36.128Z,985.76
2019-03-04T11:06:36.117Z,985.91
2019-03-04T11:07:36.067Z,986.62
2019-03-04T11:08:36.043Z,987.51
2019-03-04T11:09:36.019Z,987.70
2019-03-04T11:10:35.994Z,987.61
2019-03-04T11:11:35.994Z,987.68
2019-03-04T11:12:35.943Z,987.85
2019-03-04T11:13:35.918Z,987.88
2019-03-04T11:14:35.889Z,987.70
2019-03-04T11:15:35.858Z,987.90
2019-03-04T11:16:35.833Z,987.84
2019-03-04T11:17:35.827Z,987.76
2019-03-04T11:18:35.778Z,987.77
2019-03-04T11:19:35.746Z,987.83
2019-03-04T11:20:35.717Z,987.93
2019-03-04T11:21:35.696Z,987.98
2019-03-04T11:22:35.710Z,987.91
2019-03-04T11:23:35.631Z,988.05
2019-03-04T11:24:35.605Z,987.94
2019-03-04T11:25:35.572Z,987.98
2019-03-04T11:26:35.545Z,987.91
2019-03-04T11:27:35.606Z,987.87
2019-03-04T11:28:35.485Z,988.04
2019-03-04T11:29:35.488Z,987.86
2019-03-04T11:30:35.427Z,988.05
2019-03-04T11:31:35.403Z,988.12
2019-03-04T11:32:35.430Z,988.15
2019-03-04T11:33:35.333Z,988.20
2019-03-04T11:34:35.308Z,987.99
2019-03-04T11:35:35.287Z,988.08
2019-03-04T11:36:35.242Z,987.96
2019-03-04T11:37:35.314Z,987.76
2019-03-04T11:38:35.188Z,987.44
2019-03-04T11:39:35.149Z,987.40
2019-03-04T11:40:35.149Z,987.42
2019-03-04T11:41:35.092Z,987.44
2019-03-04T11:42:35.100Z,987.43
2019-03-04T11:43:35.033Z,987.51
2019-03-04T11:44:35.000Z,987.44
2019-03-04T11:45:34.973Z,987.33
2019-03-04T11:46:34.945Z,987.29
2019-03-04T11:47:34.915Z,987.29
2019-03-04T11:48:34.934Z,987.25
2019-03-04T11:49:34.857Z,987.31
2019-03-04T11:50:34.815Z,987.37
2019-03-04T11:51:34.837Z,987.31
2019-03-04T11:52:34.759Z,987.19
2019-03-04T11:53:35.658Z,987.19
2019-03-04T11:54:34.713Z,987.18
2019-03-04T11:55:34.699Z,987.09
2019-03-04T11:56:34.644Z,987.07
2019-03-04T11:57:34.624Z,986.93
2019-03-04T11:58:34.616Z,986.94
2019-03-04T11:59:34.586Z,986.99
2019-03-04T12:00:34.523Z,987.03
2019-03-04T12:01:34.481Z,987.11
2019-03-04T12:02:38.835Z,987.09
2019-03-04T12:03:34.455Z,987.06
2019-03-04T12:04:34.405Z,987.05
2019-03-04T12:05:34.370Z,987.10
2019-03-04T12:06:34.332Z,987.05
2019-03-04T12:07:34.320Z,987.06
2019-03-04T12:08:34.324Z,987.01
2019-03-04T12:09:34.244Z,987.00
2019-03-04T12:10:34.232Z,987.03
2019-03-04T12:11:38.157Z,987.01
2019-03-04T12:12:34.155Z,986.97
2019-03-04T12:13:34.180Z,986.99
2019-03-04T12:14:34.105Z,987.04
2019-03-04T12:15:34.180Z,986.99
2019-03-04T12:16:34.087Z,986.93
2019-03-04T12:17:34.028Z,986.97
2019-03-04T12:18:34.046Z,986.88
2019-03-04T12:19:33.972Z,986.86
2019-03-04T12:20:33.927Z,986.71
2019-03-04T12:21:33.898Z,986.77
2019-03-04T12:22:33.896Z,986.72
2019-03-04T12:23:33.836Z,986.77
2019-03-04T12:24:33.874Z,986.71
2019-03-04T12:25:33.793Z,986.74
2019-03-04T12:26:33.766Z,986.65
2019-03-04T12:27:33.735Z,986.63
2019-03-04T12:28:33.702Z,986.57
2019-03-04T12:29:33.729Z,986.61